sensor_id;sensor_type;location;lat;lon;timestamp;pressure;altitude;pressure_sealevel;temperature;humidity
54872;BME280;43914;57.680;11.982;2023-03-02T00:01:50;101997.52;;;2.18;83.85
54872;BME280;43914;57.680;11.982;2023-03-02T00:04:23;101988.79;;;2.10;84.10
54872;BME280;43914;57.680;11.982;2023-03-02T00:06:51;101993.59;;;2.07;84.49
54872;BME280;43914;57.680;11.982;2023-03-02T00:09:17;101987.48;;;1.97;84.73
54872;BME280;43914;57.680;11.982;2023-03-02T00:11:43;101989.34;;;1.93;85.20
54872;BME280;43914;57.680;11.982;2023-03-02T00:14:10;101985.70;;;1.89;85.44
54872;BME280;43914;57.680;11.982;2023-03-02T00:16:35;101984.72;;;1.88;85.94
54872;BME280;43914;57.680;11.982;2023-03-02T00:19:01;101981.36;;;1.90;86.10
54872;BME280;43914;57.680;11.982;2023-03-02T00:21:26;101982.86;;;1.94;86.13
54872;BME280;43914;57.680;11.982;2023-03-02T00:23:52;101979.17;;;1.97;85.97
54872;BME280;43914;57.680;11.982;2023-03-02T00:26:18;101979.17;;;2.00;85.78
54872;BME280;43914;57.680;11.982;2023-03-02T00:28:43;101974.36;;;2.00;85.52
54872;BME280;43914;57.680;11.982;2023-03-02T00:31:09;101979.89;;;2.02;85.54
54872;BME280;43914;57.680;11.982;2023-03-02T00:33:34;101977.98;;;2.02;85.41
54872;BME280;43914;57.680;11.982;2023-03-02T00:36:01;101974.52;;;2.01;85.38
54872;BME280;43914;57.680;11.982;2023-03-02T00:38:26;101979.35;;;2.00;85.41
54872;BME280;43914;57.680;11.982;2023-03-02T00:40:53;101980.58;;;2.00;85.58
54872;BME280;43914;57.680;11.982;2023-03-02T00:43:19;101978.54;;;1.99;85.66
54872;BME280;43914;57.680;11.982;2023-03-02T00:45:47;101977.06;;;2.00;85.76
54872;BME280;43914;57.680;11.982;2023-03-02T00:48:13;101973.94;;;1.99;85.76
54872;BME280;43914;57.680;11.982;2023-03-02T00:50:38;101972.57;;;1.98;85.82
54872;BME280;43914;57.680;11.982;2023-03-02T00:53:08;101965.00;;;1.97;85.95
54872;BME280;43914;57.680;11.982;2023-03-02T00:55:35;101969.62;;;1.97;86.08
54872;BME280;43914;57.680;11.982;2023-03-02T00:58:02;101974.14;;;1.96;85.75
54872;BME280;43914;57.680;11.982;2023-03-02T01:00:28;101969.08;;;1.89;85.60
54872;BME280;43914;57.680;11.982;2023-03-02T01:02:55;101965.14;;;1.84;86.11
54872;BME280;43914;57.680;11.982;2023-03-02T01:05:20;101966.66;;;1.82;86.39
54872;BME280;43914;57.680;11.982;2023-03-02T01:07:46;101964.98;;;1.81;86.57
54872;BME280;43914;57.680;11.982;2023-03-02T01:10:12;101965.25;;;1.79;86.63
54872;BME280;43914;57.680;11.982;2023-03-02T01:12:38;101966.63;;;1.77;86.64
54872;BME280;43914;57.680;11.982;2023-03-02T01:15:07;101964.01;;;1.74;86.65
54872;BME280;43914;57.680;11.982;2023-03-02T01:17:34;101960.20;;;1.69;86.61
54872;BME280;43914;57.680;11.982;2023-03-02T01:19:59;101963.48;;;1.65;86.64
54872;BME280;43914;57.680;11.982;2023-03-02T01:22:25;101970.00;;;1.60;86.66
54872;BME280;43914;57.680;11.982;2023-03-02T01:24:51;101972.29;;;1.54;86.71
54872;BME280;43914;57.680;11.982;2023-03-02T01:27:18;101971.75;;;1.48;86.73
54872;BME280;43914;57.680;11.982;2023-03-02T01:29:43;101970.21;;;1.41;86.98
54872;BME280;43914;57.680;11.982;2023-03-02T01:32:09;101973.55;;;1.39;87.39
54872;BME280;43914;57.680;11.982;2023-03-02T01:34:34;101971.80;;;1.36;87.54
54872;BME280;43914;57.680;11.982;2023-03-02T01:37:00;101974.83;;;1.32;87.75
54872;BME280;43914;57.680;11.982;2023-03-02T01:39:25;101973.25;;;1.29;87.84
54872;BME280;43914;57.680;11.982;2023-03-02T01:41:52;101972.09;;;1.28;88.17
54872;BME280;43914;57.680;11.982;2023-03-02T01:44:46;101976.25;;;1.26;88.40
54872;BME280;43914;57.680;11.982;2023-03-02T01:49:49;101966.13;;;1.24;89.02
54872;BME280;43914;57.680;11.982;2023-03-02T01:52:16;101971.23;;;1.25;88.98
54872;BME280;43914;57.680;11.982;2023-03-02T01:54:42;101964.51;;;1.28;89.40
54872;BME280;43914;57.680;11.982;2023-03-02T01:57:18;101961.27;;;1.29;89.31
54872;BME280;43914;57.680;11.982;2023-03-02T01:59:46;101961.20;;;1.30;89.38
54872;BME280;43914;57.680;11.982;2023-03-02T02:02:12;101959.68;;;1.32;89.53
54872;BME280;43914;57.680;11.982;2023-03-02T02:04:40;101961.89;;;1.33;89.48
54872;BME280;43914;57.680;11.982;2023-03-02T02:07:08;101952.88;;;1.36;89.58
54872;BME280;43914;57.680;11.982;2023-03-02T02:09:40;101951.29;;;1.39;89.45
54872;BME280;43914;57.680;11.982;2023-03-02T02:12:12;101947.79;;;1.41;89.40
54872;BME280;43914;57.680;11.982;2023-03-02T02:14:38;101951.79;;;1.46;89.55
54872;BME280;43914;57.680;11.982;2023-03-02T02:17:05;101938.34;;;1.49;89.34
54872;BME280;43914;57.680;11.982;2023-03-02T02:22:02;101934.05;;;1.55;89.08
54872;BME280;43914;57.680;11.982;2023-03-02T02:24:33;101933.87;;;1.58;88.78
54872;BME280;43914;57.680;11.982;2023-03-02T02:27:01;101934.41;;;1.61;88.57
54872;BME280;43914;57.680;11.982;2023-03-02T02:29:30;101932.24;;;1.62;88.35
54872;BME280;43914;57.680;11.982;2023-03-02T02:32:08;101929.53;;;1.63;88.19
54872;BME280;43914;57.680;11.982;2023-03-02T02:34:48;101927.54;;;1.63;88.15
54872;BME280;43914;57.680;11.982;2023-03-02T02:37:28;101926.67;;;1.63;88.00
54872;BME280;43914;57.680;11.982;2023-03-02T02:39:56;101928.17;;;1.65;87.63
54872;BME280;43914;57.680;11.982;2023-03-02T02:42:27;101926.60;;;1.65;87.45
54872;BME280;43914;57.680;11.982;2023-03-02T02:44:57;101922.13;;;1.65;87.23
54872;BME280;43914;57.680;11.982;2023-03-02T02:47:23;101923.70;;;1.66;86.96
54872;BME280;43914;57.680;11.982;2023-03-02T02:49:52;101920.38;;;1.65;86.63
54872;BME280;43914;57.680;11.982;2023-03-02T02:52:21;101921.08;;;1.65;86.56
54872;BME280;43914;57.680;11.982;2023-03-02T02:54:50;101917.08;;;1.64;86.36
54872;BME280;43914;57.680;11.982;2023-03-02T02:57:16;101919.32;;;1.65;86.09
54872;BME280;43914;57.680;11.982;2023-03-02T02:59:47;101920.73;;;1.65;85.92
54872;BME280;43914;57.680;11.982;2023-03-02T03:02:26;101918.07;;;1.65;85.68
54872;BME280;43914;57.680;11.982;2023-03-02T03:04:52;101918.86;;;1.64;85.59
54872;BME280;43914;57.680;11.982;2023-03-02T03:07:28;101917.38;;;1.62;85.56
54872;BME280;43914;57.680;11.982;2023-03-02T03:10:11;101915.67;;;1.61;85.29
54872;BME280;43914;57.680;11.982;2023-03-02T03:12:40;101916.84;;;1.60;85.12
54872;BME280;43914;57.680;11.982;2023-03-02T03:15:07;101917.37;;;1.60;85.01
54872;BME280;43914;57.680;11.982;2023-03-02T03:17:33;101919.39;;;1.58;84.81
54872;BME280;43914;57.680;11.982;2023-03-02T03:19:59;101918.05;;;1.57;84.71
54872;BME280;43914;57.680;11.982;2023-03-02T03:22:32;101918.98;;;1.56;84.69
54872;BME280;43914;57.680;11.982;2023-03-02T03:24:59;101921.76;;;1.57;84.44
54872;BME280;43914;57.680;11.982;2023-03-02T03:27:24;101923.49;;;1.57;84.11
54872;BME280;43914;57.680;11.982;2023-03-02T03:29:50;101919.30;;;1.57;83.97
54872;BME280;43914;57.680;11.982;2023-03-02T03:32:16;101921.87;;;1.58;83.75
54872;BME280;43914;57.680;11.982;2023-03-02T03:34:42;101912.24;;;1.54;83.69
54872;BME280;43914;57.680;11.982;2023-03-02T03:37:11;101913.90;;;1.55;83.58
54872;BME280;43914;57.680;11.982;2023-03-02T03:39:37;101916.78;;;1.55;83.41
54872;BME280;43914;57.680;11.982;2023-03-02T03:42:04;101917.58;;;1.53;83.37
54872;BME280;43914;57.680;11.982;2023-03-02T03:44:30;101917.38;;;1.51;83.37
54872;BME280;43914;57.680;11.982;2023-03-02T03:46:56;101918.09;;;1.48;83.22
54872;BME280;43914;57.680;11.982;2023-03-02T03:49:21;101918.42;;;1.45;83.18
54872;BME280;43914;57.680;11.982;2023-03-02T03:51:47;101913.02;;;1.44;82.99
54872;BME280;43914;57.680;11.982;2023-03-02T03:54:12;101907.31;;;1.42;83.12
54872;BME280;43914;57.680;11.982;2023-03-02T03:56:40;101905.69;;;1.39;83.00
54872;BME280;43914;57.680;11.982;2023-03-02T03:59:09;101904.48;;;1.36;82.96
54872;BME280;43914;57.680;11.982;2023-03-02T04:01:51;101899.42;;;1.33;82.95
54872;BME280;43914;57.680;11.982;2023-03-02T04:04:19;101900.39;;;1.31;83.10
54872;BME280;43914;57.680;11.982;2023-03-02T04:06:45;101897.72;;;1.28;83.07
54872;BME280;43914;57.680;11.982;2023-03-02T04:09:11;101897.95;;;1.24;83.00
54872;BME280;43914;57.680;11.982;2023-03-02T04:11:38;101892.48;;;1.22;82.97
54872;BME280;43914;57.680;11.982;2023-03-02T04:14:05;101894.48;;;1.21;83.03
54872;BME280;43914;57.680;11.982;2023-03-02T04:16:31;101888.65;;;1.18;83.05
54872;BME280;43914;57.680;11.982;2023-03-02T04:18:57;101889.48;;;1.16;83.10
54872;BME280;43914;57.680;11.982;2023-03-02T04:21:23;101895.58;;;1.14;83.14
54872;BME280;43914;57.680;11.982;2023-03-02T04:23:49;101887.45;;;1.11;83.05
54872;BME280;43914;57.680;11.982;2023-03-02T04:26:15;101885.58;;;1.10;83.05
54872;BME280;43914;57.680;11.982;2023-03-02T04:28:40;101878.27;;;1.09;83.08
54872;BME280;43914;57.680;11.982;2023-03-02T04:31:06;101879.00;;;1.05;82.98
54872;BME280;43914;57.680;11.982;2023-03-02T04:33:32;101878.51;;;1.02;83.10
54872;BME280;43914;57.680;11.982;2023-03-02T04:35:58;101877.91;;;1.00;83.18
54872;BME280;43914;57.680;11.982;2023-03-02T04:38:24;101877.94;;;0.97;83.21
54872;BME280;43914;57.680;11.982;2023-03-02T04:40:55;101879.45;;;0.95;83.37
54872;BME280;43914;57.680;11.982;2023-03-02T04:43:21;101875.19;;;0.92;83.37
54872;BME280;43914;57.680;11.982;2023-03-02T04:45:47;101876.99;;;0.92;83.40
54872;BME280;43914;57.680;11.982;2023-03-02T04:48:12;101874.75;;;0.91;83.35
54872;BME280;43914;57.680;11.982;2023-03-02T04:50:38;101871.27;;;0.90;83.55
54872;BME280;43914;57.680;11.982;2023-03-02T04:53:05;101872.20;;;0.90;83.66
54872;BME280;43914;57.680;11.982;2023-03-02T04:55:31;101870.95;;;0.90;83.68
54872;BME280;43914;57.680;11.982;2023-03-02T04:57:56;101872.48;;;0.88;83.63
54872;BME280;43914;57.680;11.982;2023-03-02T05:00:22;101876.96;;;0.86;83.84
54872;BME280;43914;57.680;11.982;2023-03-02T05:02:48;101873.64;;;0.86;83.76
54872;BME280;43914;57.680;11.982;2023-03-02T05:05:21;101873.55;;;0.84;83.83
54872;BME280;43914;57.680;11.982;2023-03-02T05:07:47;101868.98;;;0.84;83.86
54872;BME280;43914;57.680;11.982;2023-03-02T05:10:14;101869.14;;;0.84;84.09
54872;BME280;43914;57.680;11.982;2023-03-02T05:12:40;101871.22;;;0.85;83.97
54872;BME280;43914;57.680;11.982;2023-03-02T05:17:52;101870.94;;;0.81;83.93
54872;BME280;43914;57.680;11.982;2023-03-02T05:20:18;101868.70;;;0.80;84.06
54872;BME280;43914;57.680;11.982;2023-03-02T05:22:44;101867.62;;;0.80;84.18
54872;BME280;43914;57.680;11.982;2023-03-02T05:25:11;101868.41;;;0.79;84.15
54872;BME280;43914;57.680;11.982;2023-03-02T05:27:37;101869.30;;;0.79;84.27
54872;BME280;43914;57.680;11.982;2023-03-02T05:30:06;101872.84;;;0.79;84.16
54872;BME280;43914;57.680;11.982;2023-03-02T05:32:32;101875.70;;;0.78;84.20
54872;BME280;43914;57.680;11.982;2023-03-02T05:34:58;101876.80;;;0.77;84.36
54872;BME280;43914;57.680;11.982;2023-03-02T05:37:23;101873.34;;;0.76;84.29
54872;BME280;43914;57.680;11.982;2023-03-02T05:39:49;101872.92;;;0.74;84.46
54872;BME280;43914;57.680;11.982;2023-03-02T05:42:14;101868.87;;;0.74;84.38
54872;BME280;43914;57.680;11.982;2023-03-02T05:44:40;101870.37;;;0.73;84.61
54872;BME280;43914;57.680;11.982;2023-03-02T05:47:05;101867.25;;;0.72;84.61
54872;BME280;43914;57.680;11.982;2023-03-02T05:49:30;101863.27;;;0.70;84.75
54872;BME280;43914;57.680;11.982;2023-03-02T05:51:56;101863.92;;;0.68;84.70
54872;BME280;43914;57.680;11.982;2023-03-02T05:54:21;101868.00;;;0.68;84.72
54872;BME280;43914;57.680;11.982;2023-03-02T05:56:47;101866.80;;;0.67;84.96
54872;BME280;43914;57.680;11.982;2023-03-02T05:59:12;101872.20;;;0.66;84.87
54872;BME280;43914;57.680;11.982;2023-03-02T06:01:38;101875.05;;;0.65;84.85
54872;BME280;43914;57.680;11.982;2023-03-02T06:04:04;101875.13;;;0.64;85.08
54872;BME280;43914;57.680;11.982;2023-03-02T06:06:30;101873.21;;;0.63;85.02
54872;BME280;43914;57.680;11.982;2023-03-02T06:08:56;101874.23;;;0.64;85.30
54872;BME280;43914;57.680;11.982;2023-03-02T06:11:21;101873.34;;;0.64;85.28
54872;BME280;43914;57.680;11.982;2023-03-02T06:13:47;101872.50;;;0.64;85.31
54872;BME280;43914;57.680;11.982;2023-03-02T06:16:12;101874.64;;;0.63;85.32
54872;BME280;43914;57.680;11.982;2023-03-02T06:18:38;101872.25;;;0.65;85.62
54872;BME280;43914;57.680;11.982;2023-03-02T06:21:03;101868.11;;;0.66;85.72
54872;BME280;43914;57.680;11.982;2023-03-02T06:23:29;101863.59;;;0.68;85.65
54872;BME280;43914;57.680;11.982;2023-03-02T06:25:55;101863.05;;;0.68;85.58
54872;BME280;43914;57.680;11.982;2023-03-02T06:28:21;101864.35;;;0.70;85.53
54872;BME280;43914;57.680;11.982;2023-03-02T06:30:48;101870.21;;;0.69;85.52
54872;BME280;43914;57.680;11.982;2023-03-02T06:33:15;101873.63;;;0.71;85.68
54872;BME280;43914;57.680;11.982;2023-03-02T06:35:42;101867.16;;;0.73;85.68
54872;BME280;43914;57.680;11.982;2023-03-02T06:38:08;101865.95;;;0.76;85.69
54872;BME280;43914;57.680;11.982;2023-03-02T06:40:33;101863.80;;;0.76;85.59
54872;BME280;43914;57.680;11.982;2023-03-02T06:42:59;101869.09;;;0.79;85.89
54872;BME280;43914;57.680;11.982;2023-03-02T06:45:26;101868.61;;;0.82;85.59
54872;BME280;43914;57.680;11.982;2023-03-02T06:47:53;101872.06;;;0.83;85.60
54872;BME280;43914;57.680;11.982;2023-03-02T06:50:19;101870.94;;;0.87;85.53
54872;BME280;43914;57.680;11.982;2023-03-02T06:52:45;101875.44;;;0.89;85.43
54872;BME280;43914;57.680;11.982;2023-03-02T06:55:10;101873.16;;;0.91;85.29
54872;BME280;43914;57.680;11.982;2023-03-02T06:57:36;101874.07;;;0.94;85.53
54872;BME280;43914;57.680;11.982;2023-03-02T07:00:08;101875.64;;;1.00;86.65
54872;BME280;43914;57.680;11.982;2023-03-02T07:02:38;101870.86;;;1.29;88.55
54872;BME280;43914;57.680;11.982;2023-03-02T07:05:04;101873.71;;;1.32;86.06
54872;BME280;43914;57.680;11.982;2023-03-02T07:07:30;101877.29;;;1.31;85.46
54872;BME280;43914;57.680;11.982;2023-03-02T07:09:55;101875.94;;;1.29;85.30
54872;BME280;43914;57.680;11.982;2023-03-02T07:12:21;101875.03;;;1.30;85.06
54872;BME280;43914;57.680;11.982;2023-03-02T07:14:46;101877.41;;;1.31;84.90
54872;BME280;43914;57.680;11.982;2023-03-02T07:17:12;101876.13;;;1.32;84.56
54872;BME280;43914;57.680;11.982;2023-03-02T07:19:37;101875.95;;;1.35;84.50
54872;BME280;43914;57.680;11.982;2023-03-02T07:22:04;101874.66;;;1.39;84.48
54872;BME280;43914;57.680;11.982;2023-03-02T07:24:30;101872.55;;;1.41;84.35
54872;BME280;43914;57.680;11.982;2023-03-02T07:26:56;101870.71;;;1.46;84.30
54872;BME280;43914;57.680;11.982;2023-03-02T07:29:21;101871.86;;;1.50;84.17
54872;BME280;43914;57.680;11.982;2023-03-02T07:31:48;101863.65;;;1.54;83.92
54872;BME280;43914;57.680;11.982;2023-03-02T07:34:13;101864.90;;;1.56;83.79
54872;BME280;43914;57.680;11.982;2023-03-02T07:36:40;101857.73;;;1.61;83.79
54872;BME280;43914;57.680;11.982;2023-03-02T07:39:05;101855.41;;;1.64;84.00
54872;BME280;43914;57.680;11.982;2023-03-02T07:41:31;101851.55;;;1.70;83.89
54872;BME280;43914;57.680;11.982;2023-03-02T07:43:56;101851.97;;;1.74;83.83
54872;BME280;43914;57.680;11.982;2023-03-02T07:46:22;101847.69;;;1.78;83.75
54872;BME280;43914;57.680;11.982;2023-03-02T07:48:48;101838.92;;;1.82;83.80
54872;BME280;43914;57.680;11.982;2023-03-02T07:51:13;101838.08;;;1.87;83.74
54872;BME280;43914;57.680;11.982;2023-03-02T07:53:39;101832.54;;;1.93;83.73
54872;BME280;43914;57.680;11.982;2023-03-02T07:56:06;101832.90;;;1.98;83.65
54872;BME280;43914;57.680;11.982;2023-03-02T07:58:32;101827.30;;;2.03;83.43
54872;BME280;43914;57.680;11.982;2023-03-02T08:00:58;101823.41;;;2.09;83.39
54872;BME280;43914;57.680;11.982;2023-03-02T08:03:23;101822.42;;;2.15;83.33
54872;BME280;43914;57.680;11.982;2023-03-02T08:05:49;101822.98;;;2.21;83.40
54872;BME280;43914;57.680;11.982;2023-03-02T08:08:14;101817.52;;;2.28;83.44
54872;BME280;43914;57.680;11.982;2023-03-02T08:10:39;101820.13;;;2.34;83.28
54872;BME280;43914;57.680;11.982;2023-03-02T08:13:05;101818.31;;;2.40;83.18
54872;BME280;43914;57.680;11.982;2023-03-02T08:15:30;101813.35;;;2.46;83.15
54872;BME280;43914;57.680;11.982;2023-03-02T08:17:56;101813.52;;;2.51;83.02
54872;BME280;43914;57.680;11.982;2023-03-02T08:20:21;101811.96;;;2.55;82.94
54872;BME280;43914;57.680;11.982;2023-03-02T08:22:47;101815.80;;;2.64;82.95
54872;BME280;43914;57.680;11.982;2023-03-02T08:25:12;101816.73;;;2.71;82.99
54872;BME280;43914;57.680;11.982;2023-03-02T08:27:38;101811.71;;;2.77;82.87
54872;BME280;43914;57.680;11.982;2023-03-02T08:30:05;101810.64;;;2.85;82.70
54872;BME280;43914;57.680;11.982;2023-03-02T08:32:32;101809.11;;;2.92;82.60
54872;BME280;43914;57.680;11.982;2023-03-02T08:34:58;101812.89;;;2.96;82.36
54872;BME280;43914;57.680;11.982;2023-03-02T08:37:24;101816.20;;;3.02;82.21
54872;BME280;43914;57.680;11.982;2023-03-02T08:39:50;101818.65;;;3.07;81.97
54872;BME280;43914;57.680;11.982;2023-03-02T08:42:16;101817.17;;;3.13;81.98
54872;BME280;43914;57.680;11.982;2023-03-02T08:44:42;101811.31;;;3.19;81.73
54872;BME280;43914;57.680;11.982;2023-03-02T08:47:08;101807.77;;;3.24;81.55
54872;BME280;43914;57.680;11.982;2023-03-02T08:49:33;101806.65;;;3.30;81.42
54872;BME280;43914;57.680;11.982;2023-03-02T08:51:59;101802.41;;;3.35;81.34
54872;BME280;43914;57.680;11.982;2023-03-02T08:54:24;101799.08;;;3.39;81.16
54872;BME280;43914;57.680;11.982;2023-03-02T08:56:53;101800.30;;;3.47;81.06
54872;BME280;43914;57.680;11.982;2023-03-02T08:59:19;101800.27;;;3.52;80.99
54872;BME280;43914;57.680;11.982;2023-03-02T09:01:46;101802.98;;;3.59;80.80
54872;BME280;43914;57.680;11.982;2023-03-02T09:04:12;101798.60;;;3.63;80.50
54872;BME280;43914;57.680;11.982;2023-03-02T09:06:40;101800.23;;;3.70;80.40
54872;BME280;43914;57.680;11.982;2023-03-02T09:09:07;101798.47;;;3.77;80.34
54872;BME280;43914;57.680;11.982;2023-03-02T09:11:33;101795.59;;;3.85;80.09
54872;BME280;43914;57.680;11.982;2023-03-02T09:13:59;101786.05;;;3.87;79.76
54872;BME280;43914;57.680;11.982;2023-03-02T09:16:24;101789.77;;;3.99;79.57
54872;BME280;43914;57.680;11.982;2023-03-02T09:18:50;101785.05;;;4.07;79.31
54872;BME280;43914;57.680;11.982;2023-03-02T09:21:16;101781.70;;;4.14;78.98
54872;BME280;43914;57.680;11.982;2023-03-02T09:23:42;101784.80;;;4.20;78.75
54872;BME280;43914;57.680;11.982;2023-03-02T09:26:08;101780.35;;;4.28;78.65
54872;BME280;43914;57.680;11.982;2023-03-02T09:28:34;101774.08;;;4.36;78.31
54872;BME280;43914;57.680;11.982;2023-03-02T09:31:03;101774.06;;;4.43;78.19
54872;BME280;43914;57.680;11.982;2023-03-02T09:33:30;101767.52;;;4.49;77.93
54872;BME280;43914;57.680;11.982;2023-03-02T09:35:56;101770.88;;;4.59;77.50
54872;BME280;43914;57.680;11.982;2023-03-02T09:38:22;101768.12;;;4.67;77.12
54872;BME280;43914;57.680;11.982;2023-03-02T09:52:01;101772.23;;;5.14;74.91
54872;BME280;43914;57.680;11.982;2023-03-02T09:54:31;101767.41;;;5.26;74.23
54872;BME280;43914;57.680;11.982;2023-03-02T09:56:59;101764.89;;;5.33;73.62
54872;BME280;43914;57.680;11.982;2023-03-02T09:59:28;101757.64;;;5.39;73.02
54872;BME280;43914;57.680;11.982;2023-03-02T10:01:59;101752.17;;;5.45;72.68
54872;BME280;43914;57.680;11.982;2023-03-02T10:04:30;101752.56;;;5.54;71.98
54872;BME280;43914;57.680;11.982;2023-03-02T10:07:09;101744.22;;;5.60;71.70
54872;BME280;43914;57.680;11.982;2023-03-02T10:09:36;101742.30;;;5.68;71.33
54872;BME280;43914;57.680;11.982;2023-03-02T10:14:57;101735.98;;;5.82;69.75
54872;BME280;43914;57.680;11.982;2023-03-02T10:20:07;101733.05;;;5.96;69.22
54872;BME280;43914;57.680;11.982;2023-03-02T10:22:43;101731.42;;;6.01;68.87
54872;BME280;43914;57.680;11.982;2023-03-02T10:27:42;101729.90;;;6.19;68.73
54872;BME280;43914;57.680;11.982;2023-03-02T10:30:30;101727.20;;;6.30;68.72
54872;BME280;43914;57.680;11.982;2023-03-02T10:33:07;101719.73;;;6.41;68.22
54872;BME280;43914;57.680;11.982;2023-03-02T10:35:36;101715.33;;;6.50;68.56
54872;BME280;43914;57.680;11.982;2023-03-02T10:40:49;101717.91;;;6.64;67.95
54872;BME280;43914;57.680;11.982;2023-03-02T10:43:23;101718.36;;;6.69;67.88
54872;BME280;43914;57.680;11.982;2023-03-02T10:46:03;101716.42;;;6.73;67.60
54872;BME280;43914;57.680;11.982;2023-03-02T10:48:29;101720.83;;;6.71;66.91
54872;BME280;43914;57.680;11.982;2023-03-02T10:50:56;101719.38;;;6.68;66.36
54872;BME280;43914;57.680;11.982;2023-03-02T10:53:23;101722.33;;;6.62;66.13
54872;BME280;43914;57.680;11.982;2023-03-02T10:55:51;101714.50;;;6.54;66.37
54872;BME280;43914;57.680;11.982;2023-03-02T11:01:00;101715.23;;;6.53;67.01
54872;BME280;43914;57.680;11.982;2023-03-02T11:03:27;101715.41;;;6.54;66.85
54872;BME280;43914;57.680;11.982;2023-03-02T11:05:53;101706.59;;;6.50;66.37
54872;BME280;43914;57.680;11.982;2023-03-02T11:08:22;101705.03;;;6.46;66.12
54872;BME280;43914;57.680;11.982;2023-03-02T11:11:00;101701.66;;;6.42;65.92
54872;BME280;43914;57.680;11.982;2023-03-02T11:13:34;101700.29;;;6.39;66.07
54872;BME280;43914;57.680;11.982;2023-03-02T11:16:19;101707.05;;;6.39;66.17
54872;BME280;43914;57.680;11.982;2023-03-02T11:19:14;101704.95;;;6.41;66.24
54872;BME280;43914;57.680;11.982;2023-03-02T11:21:47;101712.56;;;6.45;66.54
54872;BME280;43914;57.680;11.982;2023-03-02T11:24:21;101712.63;;;6.49;66.50
54872;BME280;43914;57.680;11.982;2023-03-02T11:26:55;101712.39;;;6.51;65.58
54872;BME280;43914;57.680;11.982;2023-03-02T11:29:32;101712.25;;;6.53;65.47
54872;BME280;43914;57.680;11.982;2023-03-02T11:32:10;101712.73;;;6.55;65.27
54872;BME280;43914;57.680;11.982;2023-03-02T11:34:50;101711.08;;;6.56;64.65
54872;BME280;43914;57.680;11.982;2023-03-02T11:37:24;101700.65;;;6.53;64.58
54872;BME280;43914;57.680;11.982;2023-03-02T11:42:38;101698.64;;;6.52;63.92
54872;BME280;43914;57.680;11.982;2023-03-02T11:47:46;101688.00;;;6.57;63.85
54872;BME280;43914;57.680;11.982;2023-03-02T11:50:14;101685.50;;;6.55;63.47
54872;BME280;43914;57.680;11.982;2023-03-02T11:52:49;101677.91;;;6.55;63.00
54872;BME280;43914;57.680;11.982;2023-03-02T11:55:25;101674.66;;;6.53;62.87
54872;BME280;43914;57.680;11.982;2023-03-02T11:57:57;101674.35;;;6.57;63.00
54872;BME280;43914;57.680;11.982;2023-03-02T12:03:00;101684.80;;;6.64;63.19
54872;BME280;43914;57.680;11.982;2023-03-02T12:05:30;101681.94;;;6.66;62.72
54872;BME280;43914;57.680;11.982;2023-03-02T12:10:34;101668.99;;;6.63;62.99
54872;BME280;43914;57.680;11.982;2023-03-02T12:13:13;101672.56;;;6.69;63.08
54872;BME280;43914;57.680;11.982;2023-03-02T12:15:42;101672.76;;;6.73;63.05
54872;BME280;43914;57.680;11.982;2023-03-02T12:21:05;101675.15;;;6.66;63.54
54872;BME280;43914;57.680;11.982;2023-03-02T12:23:55;101683.25;;;6.77;63.90
54872;BME280;43914;57.680;11.982;2023-03-02T12:29:21;101678.10;;;6.89;63.23
54872;BME280;43914;57.680;11.982;2023-03-02T12:31:50;101687.53;;;6.96;62.78
54872;BME280;43914;57.680;11.982;2023-03-02T12:36:55;101690.46;;;6.90;61.84
54872;BME280;43914;57.680;11.982;2023-03-02T12:47:27;101679.55;;;6.99;61.92
54872;BME280;43914;57.680;11.982;2023-03-02T12:49:59;101671.54;;;7.09;61.83
54872;BME280;43914;57.680;11.982;2023-03-02T12:52:33;101668.84;;;7.21;61.68
54872;BME280;43914;57.680;11.982;2023-03-02T12:55:05;101670.80;;;7.33;61.27
54872;BME280;43914;57.680;11.982;2023-03-02T12:57:32;101664.41;;;7.43;61.26
54872;BME280;43914;57.680;11.982;2023-03-02T13:00:02;101658.64;;;7.56;61.10
54872;BME280;43914;57.680;11.982;2023-03-02T13:02:32;101656.17;;;7.71;60.46
54872;BME280;43914;57.680;11.982;2023-03-02T13:07:39;101647.06;;;7.92;60.46
54872;BME280;43914;57.680;11.982;2023-03-02T13:12:51;101660.25;;;8.25;59.66
54872;BME280;43914;57.680;11.982;2023-03-02T13:15:17;101665.61;;;8.36;58.50
54872;BME280;43914;57.680;11.982;2023-03-02T13:17:45;101660.42;;;8.44;57.93
54872;BME280;43914;57.680;11.982;2023-03-02T13:20:17;101651.98;;;8.52;57.46
54872;BME280;43914;57.680;11.982;2023-03-02T13:22:44;101651.17;;;8.61;57.15
54872;BME280;43914;57.680;11.982;2023-03-02T13:25:30;101644.40;;;8.70;57.53
54872;BME280;43914;57.680;11.982;2023-03-02T13:28:00;101644.24;;;8.83;56.77
54872;BME280;43914;57.680;11.982;2023-03-02T13:30:32;101644.07;;;8.88;55.52
54872;BME280;43914;57.680;11.982;2023-03-02T13:33:12;101643.30;;;8.94;55.29
54872;BME280;43914;57.680;11.982;2023-03-02T13:35:45;101640.23;;;9.05;55.96
54872;BME280;43914;57.680;11.982;2023-03-02T13:38:23;101639.69;;;9.15;55.38
54872;BME280;43914;57.680;11.982;2023-03-02T13:40:54;101632.08;;;9.21;54.33
54872;BME280;43914;57.680;11.982;2023-03-02T13:48:58;101594.84;;;9.36;53.80
54872;BME280;43914;57.680;11.982;2023-03-02T13:51:26;101595.64;;;9.11;52.56
54872;BME280;43914;57.680;11.982;2023-03-02T13:53:57;101590.59;;;8.79;52.97
54872;BME280;43914;57.680;11.982;2023-03-02T13:56:27;101582.40;;;8.53;53.57
54872;BME280;43914;57.680;11.982;2023-03-02T13:58:54;101584.83;;;8.27;53.89
54872;BME280;43914;57.680;11.982;2023-03-02T14:01:20;101576.34;;;8.00;54.32
54872;BME280;43914;57.680;11.982;2023-03-02T14:03:45;101571.23;;;7.77;54.93
54872;BME280;43914;57.680;11.982;2023-03-02T14:06:11;101576.10;;;7.59;55.58